x

San Clemente Basin - 27nm Se Of San Clemente Is, Ca (46086) Wave Buoy

11:50am - Mon 21st May 2018 All times are PDT. -7 hours from GMT.

  • Sig Wave height 7.2ft
  • Swell Direction
  • Peak Period 8s
  • Average Period 6s
  • Wind
    18mph, 22mph gusts
  • Sea Temp 61°f
  • Air Temp 58°f
  • Sea Pressure 1013.3mb
  • San Clemente Basin - 27nm Se Of San Clemente Is, Ca
  • San Clemente Basin - 27nm Se Of San Clemente Is, Ca

More Historic Weather Station data

Upgrade to MSW Pro to gain access to the past 30 days of data for over 8000 Wavebouys and Weather Stations around the globe.

Join

Comparision Forecast

View Surf forecast
   
Mon 05/21 11:50am 7ft 8s 6s 18 22 mph 1013.3mb 61f 58f
10:50am 7ft 8s 6s 20 22 mph 1013.1mb 61f 57f
9:50am 7ft 7s 6s 18 20 mph 1012.8mb 61f 56f
8:50am 7ft 8s 7s 16 20 mph 1012.6mb 61f 57f
7:50am 7ft 8s 7s 16 18 mph 1012.3mb 61f 58f
6:50am 7ft 8s 6s 11 16 mph 1012mb 61f 57f
5:50am 7ft 8s 6s 13 18 mph 1011.6mb 61f 57f
4:50am 7ft 8s 6s 16 18 mph 1011.6mb 61f 57f
3:50am 6.5ft 8s 6s 16 20 mph 1011.6mb 61f 58f
2:50am 6ft 8s 6s 13 16 mph 1012mb 61f 58f
1:50am 6ft 7s 7s 13 20 mph 1012.1mb 61f 58f
12:50am 5.5ft 8s 6s 13 18 mph 1012.6mb 61f 58f
Sun 05/20 11:50pm 6ft 8s 6s 11 16 mph 1013mb 61f 58f
10:50pm 6ft 8s 6s 13 18 mph 1013.1mb 62f 58f
9:50pm 5ft 7s 6s 13 16 mph 1013.2mb 62f 58f
8:50pm 5.5ft 7s 6s 13 18 mph 1012.9mb 62f 58f
7:50pm 5.5ft 7s 6s 16 18 mph 1012.8mb 62f 58f
6:50pm 6ft 8s 6s 18 20 mph 1012.8mb 62f 58f
5:50pm 5ft 7s 6s 16 20 mph 1012.8mb 62f 58f
4:50pm 5.5ft 8s 6s 16 18 mph 1013.1mb 62f 59f
3:50pm 5.5ft 8s 6s 16 18 mph 1013.4mb 62f 59f
2:50pm 5ft 8s 6s 16 20 mph 1013.8mb 62f 58f
1:50pm 5ft 8s 6s 18 20 mph 1014.2mb 62f 58f
12:50pm 5ft 8s 6s 16 18 mph 1014.7mb 62f 58f
11:50am 5ft 8s 6s 11 13 mph 1014.7mb 62f 58f
10:50am 5ft 8s 6s 11 13 mph 1014.8mb 62f 57f
9:50am 5.5ft 8s 6s 11 16 mph 1014.9mb 62f 58f
8:50am 6ft 7s 6s 9 11 mph 1014.7mb 62f 59f
7:50am 5.5ft 8s 6s 9 11 mph 1014.4mb 61f 58f
6:50am 6ft 7s 7s 9 11 mph 1014mb 61f 58f
5:50am 5ft 8s 7s 9 11 mph 1013.6mb 61f 58f
4:50am 5ft 8s 6s 11 13 mph 1013.1mb 61f 58f
3:50am 5ft 8s 6s 16 18 mph 1012.9mb 61f 57f
2:50am 5ft 8s 6s 13 18 mph 1012.7mb 61f 57f
1:50am 4.5ft 9s 6s 11 16 mph 1013.1mb 61f 57f
12:50am 4.5ft 16s 6s 16 20 mph 1013.1mb 61f 57f
Sat 05/19 11:50pm 4.5ft 16s 6s 13 16 mph 1013.5mb 61f 58f
10:50pm 4ft 16s 6s 13 16 mph 1013.8mb 61f 58f
9:50pm 4.5ft 8s 6s 16 18 mph 1013.7mb 62f 58f
8:50pm 4.5ft 8s 6s 16 18 mph 1013.2mb 62f 59f
7:50pm 4.5ft 16s 6s 16 20 mph 1012.9mb 62f 59f
6:50pm 4.5ft 16s 6s 16 18 mph 1012.5mb 62f 60f
5:50pm 4.5ft 16s 6s 13 13 mph 1012.5mb 62f 60f
4:50pm 4ft 16s 6s 11 13 mph 1012.7mb 62f 59f
3:50pm 4ft 16s 6s 7 9 mph 1013.1mb 62f 59f
2:50pm 4.5ft 16s 6s 7 9 mph 1013.6mb 62f 58f
1:50pm 4.5ft 7s 6s 4 7 mph 1013.8mb 62f 58f
12:50pm 4.5ft 7s 7s 4 7 mph 1014.3mb 62f 58f
11:50am 4.5ft 6s 6s 4 7 mph 1014.8mb 62f 57f
10:50am 4.5ft 8s 6s 4 7 mph 1014.7mb 62f 57f
9:50am 4.5ft 16s 6s 7 9 mph 1014.7mb 62f 57f
8:50am 4.5ft 7s 6s 7 9 mph 1014.4mb 62f 57f
7:50am 4.5ft 16s 6s 4 7 mph 1014.1mb 62f 57f
6:50am 4.5ft 7s 6s 9 11 mph 1013.8mb 62f 57f
5:50am 5ft 16s 6s 9 11 mph 1013.4mb 61f 58f
4:50am 4.5ft 6s 6s 11 13 mph 1013.3mb 61f 58f
3:50am 5ft 7s 6s 13 16 mph 1013.2mb 61f 58f
2:50am 4.5ft 8s 6s 11 13 mph 1013.3mb 61f 59f
1:50am 4.5ft 8s 6s 11 13 mph 1013.6mb 61f 59f
12:50am 4.5ft 16s 6s 9 13 mph 1013.9mb 61f 59f
Fri 05/18 11:50pm 4.5ft 16s 6s 9 13 mph 1014.2mb 61f 59f
10:50pm 4.5ft 17s 6s 9 11 mph 1014.1mb 62f 59f
9:50pm 4.5ft 16s 6s 13 16 mph 1014mb 62f 59f
8:50pm 4.5ft 8s 5s 16 18 mph 1013.6mb 62f 59f
7:50pm 4.5ft 16s 6s 16 18 mph 1013.3mb 62f 59f
6:50pm 5ft 16s 6s 13 18 mph 1013.5mb 62f 59f
5:50pm 5ft 17s 6s 13 16 mph 1013.8mb 62f 59f
4:50pm 5ft 7s 6s 13 13 mph 1013.8mb 62f 59f
3:50pm 5ft 7s 6s 13 16 mph 1014.3mb 62f 59f
2:50pm 5.5ft 7s 6s 13 16 mph 1014.6mb 62f 58f
1:50pm 5ft 7s 6s 13 16 mph 1015.2mb 62f 58f
12:50pm 5ft 7s 6s 13 16 mph 1015.4mb 62f 58f
11:50am 5ft 7s 6s 11 13 mph 1015.6mb 62f 58f
10:50am 5ft 7s 6s 13 16 mph 1015.6mb 62f 58f
9:50am 5.5ft 7s 7s 11 13 mph 1015.6mb 61f 58f
8:50am 5ft 7s  -  7 11 mph 1015.4mb 61f 58f
7:50am 5ft 8s 6s 9 11 mph 1015.4mb 61f 58f
6:50am 5.5ft 7s 6s 11 13 mph 1014.7mb 61f 58f
5:50am 5.5ft 8s 6s 13 18 mph 1014.3mb 61f 58f
4:50am 6ft 7s  -  16 18 mph 1014.2mb 61f 58f
3:50am 6ft 7s  -  13 16 mph 1014.5mb 61f 58f
2:50am 5.5ft 8s  -  13 16 mph 1014.3mb 61f 58f
1:50am 6ft 7s  -  9 11 mph 1014.8mb 61f 58f
12:50am 6.5ft 7s  -  16 20 mph 1015mb 61f 59f
Thu 05/17 11:50pm 6ft 8s 6s 16 20 mph 1015.3mb 61f 59f
10:50pm 6.5ft 7s  -  16 20 mph 1015.4mb 61f 59f
9:50pm 6ft 7s  -  16 18 mph 1015.6mb 61f 59f
8:50pm 6ft 7s  -  18 22 mph 1015.3mb 61f 60f